• Join FlightAware (Why Join?)
  • Login
  • US Flag 
08:09AM EDT


 

Airport Tracker/Info


-or-


 

Live Flight TrackerFlight Track Log ✈ AAL1404 ✈ 29-Jun-2013 ✈ KMIA - KDCA

Flight Track Log - Related Links

Times and Time Zones

All times are in EDT time to prevent confusion due to time zone crossing. See the AAL1404 flight status page for this flight to view local times or setup timezone preferences in your user account.

Time Position Orientation Groundspeed Altitude Reporting Facility
EDT Latitude Longitude Course Direction KTS MPH feet Rate Location/Type
07:56PM 25.7992 -80.3183 336° Northwest 177 204 1,000  Level Miami Center
07:57PM 25.8111 -80.3464 295° West 180 207 2,000 1,500 Climbing Miami Center
07:58PM 25.8222 -80.4022 282° West 242 278 3,200 1,980 Climbing Miami Center
07:59PM 26.1202 -80.3914 340° North  Level FlightAware Approximate
07:59PM 25.8906 -80.4250 343° North 278 320 5,600  Level Miami Center
08:00PM 26.2327 -80.4247 336° Northwest  Level FlightAware Approximate
08:00PM 25.9847 -80.4208 North 318 366 8,400  Level Miami Center
08:01PM 26.3403 -80.4785 336° Northwest  Level FlightAware Approximate
08:01PM 26.0683 -80.4233 358° North 310 357 10,800  Level Miami Center
08:02PM 26.4479 -80.5323 336° Northwest  Level FlightAware Approximate
08:02PM 26.1622 -80.4261 358° North 310 357 12,900  Level Miami Center
08:03PM 26.2600 -80.4406 352° North 328 377 16,200 2,940 Climbing Miami Center
08:04PM 26.3431 -80.4569 350° North 341 392 18,800 1,920 Climbing Miami Center
08:05PM 26.4636 -80.4792 351° North 372 428 20,100 1,500 Climbing Miami Center
08:06PM 26.5656 -80.4986 350° North 404 465 21,800 1,920 Climbing Miami Center
08:07PM 26.6919 -80.5350 346° North 425 489 24,000 2,160 Climbing Miami Center
08:08PM 26.8061 -80.5689 345° North 425 489 26,200 2,340 Climbing Miami Center
08:09PM 26.9200 -80.5981 347° North 425 489 28,700 2,040 Climbing Miami Center
08:10PM 27.0281 -80.6272 346° North 412 474 30,300 1,260 Climbing Miami Center
08:11PM 27.1378 -80.6633 344° North 406 467 31,300 1,140 Climbing Miami Center
08:12PM 27.2447 -80.7161 336° Northwest 413 475 32,600 1,380 Climbing Miami Center
08:13PM 27.3542 -80.7689 337° Northwest 420 483 34,100 1,200 Climbing Miami Center
08:14PM 27.4592 -80.8169 338° Northwest 420 483 35,100 900 Climbing Miami Center
08:15PM 27.5753 -80.8467 347° North 420 483 36,000 600 Climbing Miami Center
08:16PM 27.6956 -80.8719 349° North 426 490 36,400 480 Climbing Miami Center
08:17PM 27.8222 -80.9022 348° North 441 507 37,000 240 Climbing Miami Center
08:18PM 27.9486 -80.9325 348° North 447 514 36,900  Descending Miami Center
08:19PM 28.0750 -80.9606 349° North 458 527 37,000  Climbing Miami Center
08:20PM 28.2036 -80.9911 348° North 463 533 37,000  Level Miami Center
08:22PM 28.4708 -81.0578 348° North 476 548 37,000  Level Jacksonville Center
08:23PM 28.5942 -81.0861 349° North 465 535 37,000  Level Jacksonville Center
08:24PM 28.7219 -81.1147 349° North 465 535 37,000  Level Jacksonville Center
08:25PM 28.8497 -81.1481 347° North 460 529 37,000  Level Jacksonville Center
08:26PM 28.9753 -81.1789 348° North 460 529 37,000 -60 Level Jacksonville Center
08:27PM 29.1031 -81.2075 349° North 460 529 36,900 -60 Descending Jacksonville Center
08:28PM 29.2286 -81.2389 348° North 455 524 36,900  Level Jacksonville Center
08:29PM 29.3522 -81.2700 348° North 456 525 37,000  Climbing Jacksonville Center
08:30PM 29.4778 -81.2992 349° North 455 524 37,000  Level Jacksonville Center
08:31PM 29.5908 -81.3283 347° North 450 518 37,000  Level Jacksonville Center
08:32PM 29.7167 -81.3597 348° North 450 518 37,000  Level Jacksonville Center
08:33PM 29.8422 -81.3864 350° North 450 518 37,000  Level Jacksonville Center
08:34PM 29.9700 -81.4203 347° North 450 518 37,000  Level Jacksonville Center
08:35PM 30.0933 -81.4497 348° North 450 518 37,000  Level Jacksonville Center
08:36PM 30.2192 -81.4814 348° North 450 518 37,000  Level Jacksonville Center
08:37PM 30.3425 -81.5061 350° North 450 518 37,000  Level Jacksonville Center
08:38PM 30.4719 -81.4994 North 450 518 37,000  Level Jacksonville Center
08:39PM 30.6011 -81.4903 North 450 518 37,000  Level Jacksonville Center
08:40PM 30.7283 -81.4789 North 455 524 37,000  Level Jacksonville Center
08:41PM 30.8558 -81.4697 North 455 524 37,000  Level Jacksonville Center
08:42PM 30.9831 -81.4606 North 461 531 37,000  Level Jacksonville Center
08:43PM 31.1247 -81.4486 North 461 531 37,000  Level Jacksonville Center
08:44PM 31.2561 -81.4369 North 461 531 37,000  Level Jacksonville Center
08:45PM 31.3811 -81.4008 14° North 461 531 37,000  Level Jacksonville Center
08:46PM 31.5103 -81.3694 12° North 470 541 37,000  Level Jacksonville Center
08:47PM 31.6267 -81.3383 13° North 470 541 37,000  Level Jacksonville Center
08:48PM 31.7661 -81.2994 13° North 470 541 37,000 -60 Level Jacksonville Center
08:49PM 31.8972 -81.2653 12° North 470 541 36,900 -60 Descending Jacksonville Center
08:50PM 32.0261 -81.2311 13° North 470 541 36,900  Level Jacksonville Center
08:51PM 32.1508 -81.1897 16° North 470 541 37,000  Climbing Jacksonville Center
08:52PM 32.2603 -81.0992 35° Northeast 470 541 37,000  Level Jacksonville Center
08:53PM 32.3717 -81.0036 36° Northeast 482 555 37,000  Level Jacksonville Center
08:54PM 32.4767 -80.9053 38° Northeast 482 555 37,000  Level Jacksonville Center
08:55PM 32.5836 -80.8117 36° Northeast 476 548 37,000  Level Jacksonville Center
08:56PM 32.6928 -80.7131 37° Northeast 482 555 37,000 -60 Level Jacksonville Center
08:57PM 32.7975 -80.6189 37° Northeast 477 549 36,900  Descending Jacksonville Center
08:58PM 32.9083 -80.5197 37° Northeast 477 549 37,000  Climbing Jacksonville Center
08:59PM 33.0150 -80.4253 37° Northeast 477 549 37,000  Level Jacksonville Center
09:00PM 33.1156 -80.3306 38° Northeast 497 572 37,000  Level Jacksonville Center
09:01PM 33.2303 -80.2356 35° Northeast 490 564 37,000  Level Jacksonville Center
09:02PM 33.3344 -80.1306 40° Northeast 495 570 37,000  Level Jacksonville Center
09:03PM 33.4431 -80.0300 38° Northeast 495 570 37,000  Level Jacksonville Center
09:04PM 33.5533 -79.9317 37° Northeast 495 570 37,000  Level Jacksonville Center
09:05PM 33.6614 -79.8258 39° Northeast 500 575 37,000  Level Jacksonville Center
09:06PM 33.7736 -79.7244 37° Northeast 500 575 37,000  Level Jacksonville Center
09:07PM 33.8836 -79.6206 38° Northeast 500 575 37,000 -60 Level Jacksonville Center
09:08PM 33.9939 -79.5211 37° Northeast 500 575 36,900  Descending Jacksonville Center
09:09PM 34.1539 -79.3711 38° Northeast 481 554 37,000  Climbing Washington Center
09:10PM 34.2636 -79.2656 38° Northeast 486 559 37,000  Level Washington Center
09:12PM 34.3889 -79.1933 25° Northeast 492 566 37,000  Level Washington Center
09:12PM 34.5119 -79.1206 26° Northeast 492 566 37,000  Level Washington Center
09:13PM 34.6372 -79.0503 25° Northeast 492 566 37,000  Level Washington Center
09:15PM 34.7603 -78.9794 25° Northeast 487 560 37,000  Level Washington Center
09:15PM 34.8853 -78.9064 26° Northeast 487 560 37,000  Level Washington Center
09:16PM 35.0125 -78.8328 25° Northeast 493 567 37,000  Level Washington Center
09:17PM 35.1397 -78.7592 25° Northeast 493 567 37,000  Level Washington Center
09:18PM 35.2647 -78.6853 26° Northeast 493 567 37,000  Level Washington Center
09:20PM 35.3964 -78.6039 27° Northeast 515 593 37,000  Level Washington Center
09:21PM 35.5297 -78.5244 26° Northeast 510 587 37,000  Level Washington Center
09:21PM 35.6650 -78.4478 25° Northeast 510 587 37,000  Level Washington Center
09:22PM 35.7878 -78.3728 26° Northeast 510 587 37,000 -240 Level Washington Center
09:23PM 35.9147 -78.2978 26° Northeast 504 580 36,600 -1,800 Descending Washington Center
09:25PM 36.0417 -78.2225 26° Northeast 498 573 33,400 -3,300 Descending Washington Center
09:25PM 36.1728 -78.1419 26° Northeast 498 573 30,100 -3,120 Descending Washington Center
09:26PM 36.3039 -78.0611 26° Northeast 503 579 27,300 -1,560 Descending Washington Center
09:28PM 36.4008 -78.0047 25° Northeast 503 579 27,000 -180 Descending Washington Center
09:29PM 36.5256 -77.9258 27° Northeast 472 543 27,000  Level Washington Center
09:29PM 36.6544 -77.8469 26° Northeast 460 529 27,000  Level Washington Center
09:30PM 36.7764 -77.7933 19° North 460 529 27,000  Level Washington Center
09:31PM 36.9003 -77.7425 18° North 460 529 27,000  Level Washington Center
09:33PM 37.0264 -77.6939 17° North 460 529 27,000  Level Washington Center
09:34PM 37.1506 -77.6400 19° North 467 537 27,000  Level Washington Center
09:34PM 37.2786 -77.5886 18° North 467 537 27,000 -120 Level Washington Center
09:35PM 37.4044 -77.5369 18° North 467 537 26,800 -1,440 Descending Washington Center
09:36PM 37.5264 -77.4825 19° North 467 537 24,200 -2,460 Descending Washington Center
09:37PM 37.6481 -77.4331 18° North 467 537 21,900 -2,160 Descending Washington Center
09:38PM 37.7511 -77.3883 19° North 455 524 20,000 -2,160 Descending Washington Center
09:40PM 37.8622 -77.3408 19° North 435 501 17,600 -2,400 Descending Washington Center
09:40PM 37.9589 -77.2983 19° North 419 482 15,300 -2,280 Descending Washington Center
09:41PM 38.0742 -77.2536 17° North 399 459 13,100 -2,160 Descending Washington Center
09:42PM 38.1747 -77.2108 18° North 384 442 11,000 -1,560 Descending Washington Center
09:44PM 38.2756 -77.1600 22° Northeast 364 419 10,000 -540 Descending Washington Center
09:44PM 38.3550 -77.1458 North 338 389 10,000  Level Washington Center
09:45PM 38.4469 -77.1267 North 327 376 10,000  Level Washington Center
09:47PM 38.5347 -77.1072 10° North 322 371 10,000  Level Washington Center
09:47PM 38.6353 -77.0853 10° North 322 371 10,000  Level Washington Center
09:48PM 38.7167 -77.0667 10° North 308 354 10,000 -780 Level Potomac TRACON
09:49PM 38.7833 -77.0833 349° North 271 312 8,700 -1,980 Descending Potomac TRACON
09:50PM 38.8333 -77.1333 322° Northwest 266 306 6,300 -2,040 Descending Potomac TRACON
09:51PM 38.8833 -77.1833 322° Northwest 214 246 4,500 -1,680 Descending Potomac TRACON